Terminal Aerodrome Forecast
Issued by NWS Springfield, MO

Home | Current Version | Previous Version | Text Only | Print | Product List | Glossary On
Versions: 1 2 3 4 5 6 7 8 9 10 11 12 13 14 15 16 17 18 19 20 21 22 23
000
FTUS43 KSGF 010500
TAFSGF
TAF
KSGF 010520Z 0106/0206 02008KT P6SM SCT015 BKN035
     FM010800 03004KT 5SM BR SCT007 OVC015
      TEMPO 0110/0114 2SM BR OVC007
     FM011600 05006KT P6SM BKN020
     FM011900 05006KT P6SM BKN040=

USA.gov is the U.S. government's official web portal to all federal, state and local government web resources and services.